Time;durP1;ratioP1;P1;durP2;ratioP2;P2;SDS_P1;SDS_P2;PMS_P1;PMS_P2;Temp;Humidity;BMP_temperature;BMP_pressure;BME280_temperature;BME280_humidity;BME280_pressure;Samples;Min_cycle;Max_cycle;Signal;HPM_P1;HPM_P2
2021/05/02 00:00:27;;;;;;;48.93;42.13;;;;;;;10.98;84.14;97994.72;124880;1101;64365;-83
2021/05/02 00:03:14;;;;;;;55.43;44.13;;;;;;;11.01;84.31;97976.78;124753;1096;64358;-80
2021/05/02 00:05:41;;;;;;;47.50;41.17;;;;;;;11.01;84.33;97960.78;124859;1096;64301;-82
2021/05/02 00:08:07;;;;;;;51.70;41.57;;;;;;;10.99;84.35;97953.75;124772;1096;64262;-81
2021/05/02 00:10:37;;;;;;;46.43;40.23;;;;;;;10.98;84.57;97953.90;124724;1096;64435;-80
2021/05/02 00:13:05;;;;;;;51.47;43.07;;;;;;;10.96;84.31;97948.68;124855;1101;64351;-79
2021/05/02 00:15:32;;;;;;;54.27;43.70;;;;;;;10.95;84.52;97940.80;124805;1096;64336;-79
2021/05/02 00:18:01;;;;;;;51.73;42.03;;;;;;;10.93;84.36;97927.63;124813;1096;64262;-79
2021/05/02 00:20:28;;;;;;;54.35;44.55;;;;;;;10.91;83.99;97926.91;124775;1101;64326;-79
2021/05/02 00:23:04;;;;;;;56.63;46.07;;;;;;;10.90;83.90;97935.02;124733;1101;64361;-78
2021/05/02 00:25:33;;;;;;;58.20;45.30;;;;;;;10.90;84.07;97943.02;124804;1096;64383;-78
2021/05/02 00:28:05;;;;;;;54.43;46.17;;;;;;;10.88;84.39;97944.98;124799;1101;64253;-79
2021/05/02 00:30:32;;;;;;;56.50;47.10;;;;;;;10.85;84.06;97938.09;124765;1101;64310;-79
2021/05/02 00:33:01;;;;;;;59.43;48.37;;;;;;;10.85;84.15;97942.55;124780;1101;64358;-80
2021/05/02 00:35:29;;;;;;;62.77;49.73;;;;;;;10.85;83.79;97939.89;124727;1095;64253;-79
2021/05/02 00:37:56;;;;;;;61.63;49.93;;;;;;;10.86;83.75;97930.94;124757;1095;64352;-79
2021/05/02 00:40:41;;;;;;;61.80;49.33;;;;;;;10.84;84.25;97922.22;124778;1096;64351;-79
2021/05/02 00:43:13;;;;;;;70.10;52.30;;;;;;;10.83;84.06;97920.55;124808;1096;64393;-78
2021/05/02 00:45:45;;;;;;;71.73;54.47;;;;;;;10.80;84.01;97924.31;124780;1101;64335;-78
2021/05/02 00:48:23;;;;;;;72.27;55.17;;;;;;;10.80;84.18;97926.14;124748;1101;64479;-80
2021/05/02 00:51:01;;;;;;;71.95;53.05;;;;;;;10.78;83.94;97922.75;124780;1096;64563;-78
2021/05/02 00:53:28;;;;;;;73.87;51.53;;;;;;;10.79;84.34;97903.11;124759;1101;64361;-80
2021/05/02 00:56:04;;;;;;;69.07;53.77;;;;;;;10.77;84.20;97895.27;124757;1096;64368;-80
2021/05/02 00:58:50;;;;;;;74.27;52.77;;;;;;;10.76;84.96;97886.40;124740;1096;64335;-80
2021/05/02 01:01:20;;;;;;;75.10;53.67;;;;;;;10.71;85.27;97896.61;124790;1101;64374;-80
2021/05/02 01:03:49;;;;;;;72.45;52.55;;;;;;;10.66;85.37;97884.66;124797;1096;64464;-79
2021/05/02 01:06:21;;;;;;;76.80;55.50;;;;;;;10.66;84.97;97866.00;124775;1101;64799;-79
2021/05/02 01:08:57;;;;;;;76.23;53.57;;;;;;;10.64;85.41;97863.48;124788;1101;64279;-78
2021/05/02 01:11:26;;;;;;;77.43;55.07;;;;;;;10.63;85.30;97866.27;124734;1096;64263;-78
2021/05/02 01:13:56;;;;;;;73.93;54.40;;;;;;;10.62;85.31;97876.09;124845;1096;64387;-78
2021/05/02 01:16:25;;;;;;;72.85;52.13;;;;;;;10.60;85.35;97863.88;124756;1101;64464;-78
2021/05/02 01:18:56;;;;;;;74.15;53.50;;;;;;;10.59;85.40;97857.70;124781;1096;64332;-79
2021/05/02 01:21:31;;;;;;;69.60;52.07;;;;;;;10.55;85.40;97835.78;124760;1101;64333;-79
2021/05/02 01:23:59;;;;;;;77.23;52.63;;;;;;;10.54;85.48;97836.77;124795;1101;64358;-79
2021/05/02 01:26:27;;;;;;;72.20;52.97;;;;;;;10.53;85.25;97836.89;124732;1101;64376;-80
2021/05/02 01:28:57;;;;;;;72.10;52.07;;;;;;;10.52;85.11;97841.38;124799;1101;64479;-79
2021/05/02 01:31:24;;;;;;;;;;;;;;;10.50;85.77;97835.34;124752;1101;64303;-79
2021/05/02 01:33:51;;;;;;;71.97;52.80;;;;;;;10.45;85.41;97828.72;124755;1101;64352;-80
2021/05/02 01:36:18;;;;;;;68.93;48.77;;;;;;;10.43;85.45;97812.05;124780;1096;64326;-79
2021/05/02 01:38:45;;;;;;;65.93;48.00;;;;;;;10.43;85.75;97799.56;124749;1101;64451;-80
2021/05/02 01:41:12;;;;;;;67.30;49.30;;;;;;;10.39;85.45;97790.14;124804;1101;64263;-79
2021/05/02 01:43:38;;;;;;;68.87;47.47;;;;;;;10.37;86.51;97778.77;124748;1101;64409;-79
2021/05/02 01:46:06;;;;;;;68.80;48.40;;;;;;;10.32;86.19;97776.52;124819;1101;64303;-79
2021/05/02 01:48:35;;;;;;;63.53;47.67;;;;;;;10.32;86.20;97783.63;124894;1101;64278;-78
2021/05/02 01:51:04;;;;;;;66.00;48.47;;;;;;;10.31;86.34;97774.81;124780;1096;64339;-80
2021/05/02 01:53:36;;;;;;;65.83;47.73;;;;;;;10.30;87.00;97785.61;124887;1101;64364;-80
2021/05/02 01:56:04;;;;;;;;;;;;;;;10.26;87.07;97771.66;124836;1101;64323;-79
2021/05/02 01:58:32;;;;;;;67.27;48.97;;;;;;;10.26;86.84;97765.50;124790;1101;64287;-79
2021/05/02 02:01:06;;;;;;;67.43;48.90;;;;;;;10.24;86.55;97754.13;124722;1101;64351;-80
2021/05/02 02:03:34;;;;;;;65.40;48.13;;;;;;;10.22;87.05;97732.98;124750;1101;64441;-78
2021/05/02 02:06:02;;;;;;;61.17;45.60;;;;;;;10.20;87.85;97726.09;124761;1101;64323;-79
2021/05/02 02:08:29;;;;;;;62.90;47.55;;;;;;;10.16;88.05;97725.49;124754;1101;64265;-79
2021/05/02 02:10:57;;;;;;;70.83;49.70;;;;;;;10.16;87.53;97719.33;124760;1101;64323;-80
2021/05/02 02:13:23;;;;;;;65.47;47.90;;;;;;;10.16;87.75;97716.67;124742;1096;64330;-79
2021/05/02 02:15:50;;;;;;;68.45;46.90;;;;;;;10.14;88.54;97707.97;124728;1101;64389;-79
2021/05/02 02:18:18;;;;;;;63.03;47.30;;;;;;;10.10;88.14;97697.58;124853;1101;64416;-79
2021/05/02 02:20:51;;;;;;;67.43;47.87;;;;;;;10.13;88.52;97704.47;124747;1096;64328;-79
2021/05/02 02:23:40;;;;;;;66.33;48.07;;;;;;;10.11;88.37;97701.11;124763;1101;64265;-79
2021/05/02 02:26:31;;;;;;;64.43;46.13;;;;;;;10.10;88.20;97689.59;124781;1101;64429;-81
2021/05/02 02:28:59;;;;;;;65.90;49.43;;;;;;;10.10;88.57;97670.96;124735;1101;64419;-78
2021/05/02 02:31:33;;;;;;;63.80;48.27;;;;;;;10.11;88.43;97667.34;124813;1096;64371;-79
2021/05/02 02:34:00;;;;;;;60.57;43.97;;;;;;;10.12;89.75;97662.86;124907;1096;64386;-78
2021/05/02 02:36:27;;;;;;;69.20;46.20;;;;;;;10.09;88.88;97663.97;124818;1096;64278;-80
2021/05/02 02:38:54;;;;;;;66.35;48.55;;;;;;;10.10;89.40;97654.16;124811;1101;64323;-80
2021/05/02 02:41:22;;;;;;;68.10;47.07;;;;;;;10.10;88.86;97638.19;124837;1096;64332;-80
2021/05/02 02:43:54;;;;;;;62.97;46.37;;;;;;;10.10;89.11;97644.34;124838;1095;64414;-81
2021/05/02 02:46:22;;;;;;;61.53;44.53;;;;;;;10.10;88.85;97644.34;125482;1101;64329;-78
2021/05/02 02:48:57;;;;;;;65.20;44.23;;;;;;;10.14;88.60;97647.60;125088;1096;64333;-81
2021/05/02 02:51:28;;;;;;;62.60;44.35;;;;;;;10.15;89.64;97637.79;124879;1101;64339;-80
2021/05/02 02:54:02;;;;;;;62.37;43.40;;;;;;;10.13;89.66;97632.59;125149;1101;64655;-79
2021/05/02 02:56:31;;;;;;;62.53;44.97;;;;;;;10.14;89.41;97614.79;124886;1095;64246;-81
2021/05/02 02:59:16;;;;;;;62.33;44.77;;;;;;;10.12;90.11;97614.94;124766;1101;64402;-81
2021/05/02 03:01:47;;;;;;;66.00;46.00;;;;;;;10.08;89.53;97609.05;124755;1096;64358;-79
2021/05/02 03:04:17;;;;;;;63.73;44.63;;;;;;;10.08;89.99;97598.41;124788;1096;64249;-78
2021/05/02 03:06:44;;;;;;;66.50;46.13;;;;;;;10.08;90.30;97600.20;124763;1096;64441;-79
2021/05/02 03:09:15;;;;;;;64.20;44.77;;;;;;;10.07;90.37;97588.72;124786;1101;64477;-79
2021/05/02 03:11:43;;;;;;;68.10;45.05;;;;;;;10.09;90.08;97589.43;124780;1101;64362;-80
2021/05/02 03:14:13;;;;;;;65.23;43.73;;;;;;;10.10;90.06;97575.13;124740;1096;64335;-80
2021/05/02 03:16:43;;;;;;;67.80;46.40;;;;;;;10.11;90.24;97570.67;124747;1101;64339;-79
2021/05/02 03:19:26;;;;;;;64.00;43.50;;;;;;;10.12;90.50;97564.36;124720;1101;64560;-80
2021/05/02 03:22:06;;;;;;;62.20;43.10;;;;;;;10.11;90.00;97563.53;124776;1101;64361;-80
2021/05/02 03:24:38;;;;;;;;;;;;;;;10.14;89.75;97567.73;124795;1101;64435;-79
2021/05/02 03:27:22;;;;;;;68.77;43.73;;;;;;;10.16;89.65;97564.92;124727;1101;64358;-78
2021/05/02 03:29:49;;;;;;;65.60;43.47;;;;;;;10.19;89.89;97570.84;124745;1096;64262;-78
2021/05/02 03:32:20;;;;;;;63.07;42.50;;;;;;;10.21;90.02;97554.72;124750;1101;64296;-78
2021/05/02 03:34:50;;;;;;;59.73;43.70;;;;;;;10.21;90.32;97563.53;124504;1101;64518;-78
2021/05/02 03:37:19;;;;;;;65.17;44.90;;;;;;;10.18;90.54;97566.47;124773;1101;64342;-78
2021/05/02 03:39:51;;;;;;;65.67;45.97;;;;;;;10.18;90.25;97552.33;124810;1101;64516;-78
2021/05/02 03:42:18;;;;;;;63.37;44.57;;;;;;;10.19;90.28;97554.00;124796;1096;64336;-78
2021/05/02 03:44:45;;;;;;;63.90;41.30;;;;;;;10.18;91.56;97544.34;124727;1096;64543;-79
2021/05/02 03:47:12;;;;;;;63.40;45.43;;;;;;;10.17;90.64;97547.99;124781;1101;64358;-78
2021/05/02 03:49:40;;;;;;;66.93;46.07;;;;;;;10.17;90.95;97542.67;124754;1101;64252;-77
2021/05/02 03:52:07;;;;;;;62.85;43.80;;;;;;;10.20;90.66;97537.06;124802;1096;64250;-77
2021/05/02 03:54:34;;;;;;;61.17;43.43;;;;;;;10.20;90.49;97524.59;124806;1101;64329;-78
2021/05/02 03:57:00;;;;;;;65.43;43.13;;;;;;;10.19;91.53;97519.39;124727;1101;64450;-78
2021/05/02 03:59:27;;;;;;;62.40;41.97;;;;;;;10.17;91.04;97527.53;124529;1096;64351;-77
2021/05/02 04:01:57;;;;;;;60.37;43.03;;;;;;;10.19;90.76;97522.92;124774;1096;64355;-78
2021/05/02 04:04:26;;;;;;;56.60;39.27;;;;;;;10.20;90.77;97521.09;124793;1101;64327;-77
2021/05/02 04:07:07;;;;;;;57.93;40.93;;;;;;;10.20;90.67;97521.93;124806;1101;64252;-77
2021/05/02 04:09:34;;;;;;;54.30;40.77;;;;;;;10.21;91.41;97530.75;124741;1096;64330;-77
2021/05/02 04:12:06;;;;;;;60.40;41.27;;;;;;;10.20;91.43;97518.44;124759;1096;64827;-76
2021/05/02 04:14:33;;;;;;;60.83;40.63;;;;;;;10.19;91.22;97530.04;124774;1096;64336;-77
2021/05/02 04:17:04;;;;;;;54.87;40.33;;;;;;;10.19;91.13;97546.02;124782;1096;64297;-77
2021/05/02 04:19:34;;;;;;;57.25;39.30;;;;;;;10.19;91.25;97556.66;124796;1101;64329;-77
2021/05/02 04:22:02;;;;;;;52.67;36.87;;;;;;;10.18;91.33;97547.00;124852;1096;64333;-77
2021/05/02 04:24:29;;;;;;;53.67;37.17;;;;;;;10.16;91.16;97544.46;124805;1101;64487;-77
2021/05/02 04:26:57;;;;;;;49.93;34.63;;;;;;;10.17;91.09;97535.52;124805;1096;64316;-78
2021/05/02 04:29:27;;;;;;;47.97;34.03;;;;;;;10.18;91.06;97547.00;124791;1095;64326;-77
2021/05/02 04:31:55;;;;;;;47.90;34.70;;;;;;;10.19;91.19;97565.52;124892;1095;64351;-77
2021/05/02 04:34:22;;;;;;;47.30;34.87;;;;;;;10.21;91.04;97590.16;124760;1101;64406;-77
2021/05/02 04:36:51;;;;;;;44.57;33.07;;;;;;;10.24;91.00;97619.20;124748;1101;64399;-77
2021/05/02 04:39:18;;;;;;;45.17;31.93;;;;;;;10.25;90.86;97620.88;124859;1101;64278;-77
2021/05/02 04:41:46;;;;;;;44.27;32.60;;;;;;;10.27;90.94;97620.75;124733;1096;64339;-77
2021/05/02 04:44:13;;;;;;;44.25;32.90;;;;;;;10.26;91.03;97601.25;124732;1101;64345;-78
2021/05/02 04:46:41;;;;;;;43.50;32.87;;;;;;;10.26;90.78;97585.27;124701;1101;64330;-78
2021/05/02 04:49:08;;;;;;;40.13;31.23;;;;;;;10.27;91.09;97555.06;124740;1096;64453;-77
2021/05/02 04:51:37;;;;;;;34.93;27.97;;;;;;;10.26;90.84;97550.66;124871;1101;64497;-76
2021/05/02 04:54:06;;;;;;;54.57;44.90;;;;;;;10.25;90.78;97535.67;124911;1101;64278;-76
2021/05/02 04:56:33;;;;;;;38.70;31.90;;;;;;;10.25;90.87;97535.67;124816;1101;64676;-76
2021/05/02 04:59:02;;;;;;;36.07;27.80;;;;;;;10.26;91.04;97528.52;124747;1095;64495;-77
2021/05/02 05:01:30;;;;;;;36.08;29.43;;;;;;;10.23;90.93;97548.27;124776;1101;64365;-76
2021/05/02 05:03:57;;;;;;;33.40;29.20;;;;;;;10.23;91.01;97556.27;124814;1101;64371;-75
2021/05/02 05:06:24;;;;;;;30.00;24.47;;;;;;;10.24;91.03;97541.13;124817;1096;64435;-75
2021/05/02 05:08:51;;;;;;;29.47;23.53;;;;;;;10.23;91.51;97518.98;124752;1096;64336;-77
2021/05/02 05:11:20;;;;;;;25.80;23.07;;;;;;;10.22;91.52;97492.52;124730;1101;64425;-76
2021/05/02 05:13:48;;;;;;;30.55;25.60;;;;;;;10.18;91.74;97486.61;124827;1101;64429;-76
2021/05/02 05:16:15;;;;;;;28.73;23.87;;;;;;;10.17;91.67;97468.13;124860;1101;64339;-77
2021/05/02 05:18:42;;;;;;;26.90;21.93;;;;;;;10.13;91.92;97461.38;124767;1101;64252;-76
2021/05/02 05:21:09;;;;;;;28.33;21.37;;;;;;;10.09;92.80;97439.53;124745;1101;64326;-75
2021/05/02 05:23:35;;;;;;;26.00;21.43;;;;;;;10.06;92.61;97427.34;124782;1096;64291;-77
2021/05/02 05:26:02;;;;;;;22.73;19.77;;;;;;;10.06;93.08;97421.19;124749;1101;64467;-77
2021/05/02 05:28:29;;;;;;;22.75;19.10;;;;;;;10.05;93.13;97417.66;124758;1101;64336;-79
2021/05/02 05:30:56;;;;;;;21.97;17.20;;;;;;;10.05;93.61;97414.99;124781;1096;64326;-77
2021/05/02 05:33:29;;;;;;;20.75;17.95;;;;;;;10.05;93.54;97425.64;124709;1096;64341;-82
2021/05/02 05:35:56;;;;;;;22.50;18.75;;;;;;;10.08;92.77;97433.38;124820;1096;64466;-77
2021/05/02 05:38:23;;;;;;;21.87;19.23;;;;;;;10.12;93.25;97423.28;124792;1101;64399;-79
2021/05/02 05:40:50;;;;;;;22.80;20.37;;;;;;;10.15;92.61;97430.15;124830;1101;64358;-77
2021/05/02 05:43:18;;;;;;;23.73;19.43;;;;;;;10.20;92.61;97422.59;124793;1101;64249;-79
2021/05/02 05:45:45;;;;;;;23.70;20.15;;;;;;;10.23;92.58;97425.80;124772;1101;64330;-78
2021/05/02 05:48:12;;;;;;;22.17;19.43;;;;;;;10.28;93.08;97422.77;124731;1096;64336;-77
2021/05/02 05:50:41;;;;;;;21.83;18.20;;;;;;;10.29;92.87;97422.64;124856;1096;64477;-76
2021/05/02 05:53:08;;;;;;;23.17;19.47;;;;;;;10.29;92.66;97445.73;124731;1101;64282;-77
2021/05/02 05:55:35;;;;;;;22.73;20.20;;;;;;;10.28;92.56;97444.06;124753;1101;64348;-76
2021/05/02 05:58:02;;;;;;;23.57;20.10;;;;;;;10.29;93.22;97430.63;124773;1096;64330;-76
2021/05/02 06:00:28;;;;;;;21.55;19.30;;;;;;;10.28;92.74;97431.59;124768;1102;64499;-77
2021/05/02 06:02:55;;;;;;;23.03;19.90;;;;;;;10.26;92.99;97438.83;124819;1101;64426;-75
2021/05/02 06:05:22;;;;;;;23.17;20.03;;;;;;;10.24;93.04;97435.49;124737;1101;64399;-76
2021/05/02 06:07:48;;;;;;;22.90;20.50;;;;;;;10.23;92.88;97422.31;124764;1096;64253;-76
2021/05/02 06:10:16;;;;;;;22.37;19.97;;;;;;;10.23;93.15;97419.64;124783;1096;64358;-75
2021/05/02 06:12:42;;;;;;;23.57;19.40;;;;;;;10.21;93.17;97426.92;124822;1101;64493;-75
2021/05/02 06:15:11;;;;;;;21.70;19.50;;;;;;;10.22;93.31;97399.34;124859;1101;64406;-76
2021/05/02 06:17:38;;;;;;;20.53;18.37;;;;;;;10.22;93.85;97378.88;124785;1101;64249;-77
2021/05/02 06:20:05;;;;;;;18.70;16.90;;;;;;;10.21;94.04;97361.20;124818;1101;64266;-76
2021/05/02 06:22:32;;;;;;;20.27;18.10;;;;;;;10.22;94.03;97351.42;124784;1096;64396;-76
2021/05/02 06:24:59;;;;;;;18.60;16.70;;;;;;;10.19;94.99;97328.58;124741;1101;64329;-76
2021/05/02 06:27:26;;;;;;;17.10;15.30;;;;;;;10.18;95.25;97321.55;124783;1101;64464;-76
2021/05/02 06:29:53;;;;;;;19.90;17.45;;;;;;;10.18;94.42;97324.22;124721;1096;64342;-77
2021/05/02 06:32:20;;;;;;;30.57;24.60;;;;;;;10.22;94.30;97327.45;124728;1101;64342;-77
2021/05/02 06:34:46;;;;;;;17.53;15.10;;;;;;;10.26;94.20;97310.20;124738;1101;64333;-78
2021/05/02 06:37:13;;;;;;;24.95;19.80;;;;;;;10.29;94.52;97312.61;124723;1096;64486;-78
2021/05/02 06:39:42;;;;;;;24.90;21.40;;;;;;;10.33;94.55;97303.37;124789;1096;64282;-77
2021/05/02 06:42:09;;;;;;;26.17;23.47;;;;;;;10.37;94.29;97302.08;124772;1101;64326;-77
2021/05/02 06:44:36;;;;;;;14.47;12.97;;;;;;;10.44;94.31;97297.03;124768;1096;64361;-78
2021/05/02 06:47:02;;;;;;;15.87;14.37;;;;;;;10.50;94.41;97297.28;124761;1101;64440;-78
2021/05/02 06:49:31;;;;;;;12.15;11.05;;;;;;;10.55;94.05;97299.52;124736;1096;64345;-78
2021/05/02 06:51:57;;;;;;;16.67;15.13;;;;;;;10.59;93.77;97300.09;124758;1101;64464;-79
2021/05/02 06:54:24;;;;;;;14.10;12.77;;;;;;;10.60;93.99;97297.27;124769;1096;64333;-78
2021/05/02 06:56:51;;;;;;;16.30;14.70;;;;;;;10.60;93.85;97277.79;124756;1101;64277;-76
2021/05/02 06:59:18;;;;;;;14.65;13.25;;;;;;;10.66;93.93;97251.39;124747;1096;64355;-77
2021/05/02 07:01:45;;;;;;;12.20;11.00;;;;;;;10.73;94.20;97265.81;124719;1096;64293;-77
2021/05/02 07:04:12;;;;;;;14.93;13.53;;;;;;;10.79;93.35;97259.05;124759;1101;64416;-77
2021/05/02 07:06:39;;;;;;;16.53;14.93;;;;;;;10.83;93.20;97260.45;124750;1101;64384;-78
2021/05/02 07:09:06;;;;;;;21.77;19.90;;;;;;;10.85;93.58;97253.16;124775;1101;64432;-78
2021/05/02 07:11:33;;;;;;;25.10;22.87;;;;;;;10.85;93.42;97244.30;124757;1096;64335;-77
2021/05/02 07:14:02;;;;;;;33.83;30.67;;;;;;;10.86;93.48;97252.16;124746;1096;64470;-78
2021/05/02 07:16:29;;;;;;;22.27;20.13;;;;;;;10.88;93.38;97252.03;124756;1096;64378;-78
2021/05/02 07:18:56;;;;;;;16.85;15.25;;;;;;;10.91;93.49;97249.89;124728;1101;64339;-78
2021/05/02 07:21:23;;;;;;;24.80;22.60;;;;;;;10.93;93.41;97234.60;124807;1101;64748;-77
2021/05/02 07:23:53;;;;;;;21.10;19.20;;;;;;;10.95;93.50;97235.30;124816;1101;64416;-76
2021/05/02 07:26:21;;;;;;;26.60;24.10;;;;;;;10.95;93.18;97224.64;124871;1096;64435;-77
2021/05/02 07:28:49;;;;;;;16.47;14.80;;;;;;;10.95;93.36;97213.11;124842;1101;64387;-76
2021/05/02 07:31:16;;;;;;;17.00;15.40;;;;;;;10.99;93.60;97198.52;124775;1096;64364;-76
2021/05/02 07:33:43;;;;;;;18.50;16.83;;;;;;;11.10;93.28;97200.13;124834;1096;64247;-77
2021/05/02 07:36:15;;;;;;;17.90;16.30;;;;;;;11.23;93.03;97194.44;124733;1101;64249;-78
2021/05/02 07:38:42;;;;;;;19.53;17.73;;;;;;;11.38;92.83;97193.76;124789;1096;64342;-76
2021/05/02 07:41:10;;;;;;;21.10;19.20;;;;;;;11.52;92.44;97194.22;124795;1096;64426;-77
2021/05/02 07:43:39;;;;;;;21.90;20.00;;;;;;;11.59;92.48;97197.95;124770;1096;64303;-77
2021/05/02 07:46:07;;;;;;;22.45;20.45;;;;;;;11.62;92.31;97216.32;124763;1096;64329;-77
2021/05/02 07:48:36;;;;;;;27.15;25.05;;;;;;;11.61;92.42;97198.62;124770;1095;64339;-77
2021/05/02 07:51:03;;;;;;;36.10;31.60;;;;;;;11.68;92.27;97197.02;124857;1101;64429;-77
2021/05/02 07:53:30;;;;;;;33.73;30.03;;;;;;;11.76;92.08;97204.26;124855;1101;64486;-77
2021/05/02 07:55:57;;;;;;;22.07;19.97;;;;;;;11.75;91.90;97222.11;124758;1096;64329;-77
2021/05/02 07:58:24;;;;;;;22.33;20.30;;;;;;;11.75;92.40;97216.77;124759;1101;64329;-78
2021/05/02 08:00:51;;;;;;;20.67;18.87;;;;;;;11.78;92.22;97224.47;124758;1101;64303;-77
2021/05/02 08:03:18;;;;;;;20.70;18.70;;;;;;;11.83;92.06;97219.50;124753;1096;64339;-78
2021/05/02 08:05:46;;;;;;;19.83;18.13;;;;;;;11.93;92.10;97218.59;124812;1101;64391;-79
2021/05/02 08:08:13;;;;;;;22.65;20.70;;;;;;;11.99;91.94;97215.33;124772;1101;64208;-77
2021/05/02 08:10:40;;;;;;;19.30;17.40;;;;;;;12.03;91.75;97222.88;124824;1095;64355;-82
2021/05/02 08:13:30;;;;;;;18.83;16.90;;;;;;;12.02;91.65;97218.52;125309;1101;64358;-93
2021/05/02 08:15:57;;;;;;;19.70;17.90;;;;;;;12.03;91.88;97224.69;125083;1101;64483;-88
2021/05/02 08:18:24;;;;;;;24.20;22.00;;;;;;;11.99;91.88;97223.33;125896;1101;64281;-94
2021/05/02 08:20:50;;;;;;;28.50;25.90;;;;;;;12.00;92.16;97236.51;125614;1096;64370;-83
2021/05/02 08:23:17;;;;;;;31.57;28.43;;;;;;;12.08;92.18;97225.06;125051;1101;64278;-85
2021/05/02 08:25:44;;;;;;;25.93;23.53;;;;;;;12.11;92.12;97231.92;124997;1101;64328;-82
2021/05/02 08:28:11;;;;;;;46.57;42.20;;;;;;;12.21;92.36;97235.34;125183;1101;64374;-78
2021/05/02 08:30:37;;;;;;;25.77;23.47;;;;;;;12.35;92.00;97228.58;124981;1101;64374;-87
2021/05/02 08:33:05;;;;;;;23.17;21.07;;;;;;;12.57;92.46;97233.40;124975;1101;64371;-94
2021/05/02 08:35:32;;;;;;;23.33;21.13;;;;;;;12.77;92.05;97241.17;124933;1101;64329;-93
2021/05/02 08:38:00;;;;;;;63.00;56.97;;;;;;;12.70;91.33;97239.15;125096;1101;64326;-88
2021/05/02 08:40:27;;;;;;;35.57;32.27;;;;;;;12.61;91.34;97242.79;125042;1101;64428;-93
2021/05/02 08:42:54;;;;;;;21.30;19.13;;;;;;;12.65;92.12;97265.52;124946;1101;64477;-94
2021/05/02 08:45:23;;;;;;;18.27;16.57;;;;;;;12.60;91.81;97289.20;125197;1101;64489;-85
2021/05/02 08:47:51;;;;;;;19.63;17.83;;;;;;;12.46;91.66;97322.68;125055;1101;64441;-89
2021/05/02 08:50:17;;;;;;;20.33;18.33;;;;;;;12.38;91.65;97309.27;124853;1096;64227;-84
2021/05/02 08:52:44;;;;;;;21.33;18.97;;;;;;;12.36;91.77;97308.58;124852;1096;64444;-84
2021/05/02 08:55:11;;;;;;;19.87;17.60;;;;;;;12.35;91.93;97319.40;124872;1101;64393;-84
2021/05/02 08:57:38;;;;;;;19.93;17.97;;;;;;;12.38;92.01;97311.10;124991;1101;64246;-84
2021/05/02 09:00:08;;;;;;;18.77;16.93;;;;;;;12.66;92.27;97303.77;124972;1101;64323;-83
2021/05/02 09:02:35;;;;;;;20.90;18.28;;;;;;;13.07;91.24;97307.52;124911;1101;64333;-84
2021/05/02 09:05:04;;;;;;;20.27;17.37;;;;;;;13.15;90.70;97315.57;124921;1101;64460;-84
2021/05/02 09:07:42;;;;;;;20.40;18.23;;;;;;;13.18;90.63;97317.09;124959;1097;64333;-83
2021/05/02 09:10:13;;;;;;;21.00;18.70;;;;;;;13.18;90.50;97317.92;124986;1096;64336;-82
2021/05/02 09:12:43;;;;;;;25.37;22.03;;;;;;;13.13;90.68;97314.05;125065;1096;64326;-82
2021/05/02 09:15:19;;;;;;;23.40;20.73;;;;;;;13.27;90.08;97318.84;125073;1096;64662;-82
2021/05/02 09:18:19;;;;;;;26.40;22.43;;;;;;;13.44;89.89;97322.41;124929;1101;64456;-82
2021/05/02 09:20:51;;;;;;;27.40;22.13;;;;;;;13.57;89.63;97336.17;124996;1101;64467;-82
2021/05/02 09:23:18;;;;;;;29.13;25.97;;;;;;;13.58;89.29;97339.68;124985;1101;64301;-82
2021/05/02 09:25:47;;;;;;;28.43;23.93;;;;;;;13.51;89.35;97344.86;124899;1095;64326;-82
2021/05/02 09:28:15;;;;;;;27.80;24.25;;;;;;;13.53;89.06;97355.39;124966;1097;64277;-82
2021/05/02 09:30:42;;;;;;;24.73;20.13;;;;;;;13.69;88.85;97355.47;125242;1095;64250;-82
2021/05/02 09:33:23;;;;;;;21.07;18.37;;;;;;;13.95;88.10;97355.34;125228;1101;64351;-82
2021/05/02 09:35:51;;;;;;;18.60;16.30;;;;;;;14.40;87.11;97361.26;124887;1101;64329;-82
2021/05/02 09:38:18;;;;;;;18.27;15.50;;;;;;;14.57;85.26;97364.83;124927;1101;64275;-82
2021/05/02 09:40:49;;;;;;;17.00;14.93;;;;;;;14.44;85.47;97363.45;124842;1101;64422;-81
2021/05/02 09:43:32;;;;;;;16.47;14.77;;;;;;;14.19;84.21;97367.10;124868;1101;64336;-82
2021/05/02 09:46:25;;;;;;;17.43;14.17;;;;;;;13.90;84.61;97383.61;124832;1101;64366;-82
2021/05/02 09:49:13;;;;;;;19.37;15.27;;;;;;;13.65;84.42;97402.28;124845;1096;64330;-83
2021/05/02 09:51:50;;;;;;;15.75;14.05;;;;;;;13.47;85.31;97397.02;124907;1096;64336;-84
2021/05/02 09:54:19;;;;;;;17.63;14.47;;;;;;;13.28;85.68;97399.94;124880;1101;64416;-83
2021/05/02 09:56:51;;;;;;;19.40;17.00;;;;;;;13.14;86.09;97452.16;124939;1101;64377;-82
2021/05/02 09:59:27;;;;;;;17.50;15.67;;;;;;;13.01;85.37;97457.08;125035;1096;64425;-83
2021/05/02 10:02:12;;;;;;;16.07;14.37;;;;;;;12.89;85.09;97472.52;124891;1101;64418;-82
2021/05/02 10:04:45;;;;;;;13.20;11.90;;;;;;;12.77;84.81;97484.43;124842;1101;64377;-83
2021/05/02 10:07:14;;;;;;;14.55;12.05;;;;;;;12.70;85.16;97476.20;124894;1101;64365;-82
2021/05/02 10:09:42;;;;;;;11.25;10.15;;;;;;;12.66;85.04;97488.18;124867;1101;64456;-83
2021/05/02 10:12:10;;;;;;;12.50;11.20;;;;;;;12.55;85.05;97494.59;124850;1101;64459;-82
2021/05/02 10:14:38;;;;;;;8.40;7.50;;;;;;;12.42;84.42;97499.47;124918;1096;64339;-82
2021/05/02 10:17:06;;;;;;;8.13;6.80;;;;;;;12.25;84.64;97514.49;124919;1101;64336;-84
2021/05/02 10:19:34;;;;;;;6.53;5.67;;;;;;;12.37;84.25;97520.45;124869;1096;64287;-81
2021/05/02 10:22:02;;;;;;;6.50;4.37;;;;;;;12.59;83.75;97536.07;124615;1101;64447;-83
2021/05/02 10:24:29;;;;;;;4.20;3.70;;;;;;;13.00;81.91;97544.47;124565;1097;64432;-84
2021/05/02 10:26:56;;;;;;;4.43;3.70;;;;;;;12.98;82.07;97543.80;124801;1101;64336;-82
2021/05/02 10:29:24;;;;;;;4.80;3.80;;;;;;;12.84;81.71;97557.69;124839;1101;64374;-82
2021/05/02 10:32:02;;;;;;;4.10;3.67;;;;;;;12.74;80.60;97563.97;124824;1101;64258;-83
2021/05/02 10:34:35;;;;;;;4.80;4.20;;;;;;;12.73;81.48;97577.47;124841;1101;64371;-83
2021/05/02 10:37:24;;;;;;;5.05;3.50;;;;;;;12.69;80.97;97579.61;124898;1101;64358;-81
2021/05/02 10:39:54;;;;;;;5.53;3.67;;;;;;;12.54;81.01;97586.45;124850;1101;64307;-83
2021/05/02 10:42:38;;;;;;;5.85;4.08;;;;;;;12.29;81.29;97586.14;124825;1097;64399;-83
2021/05/02 10:45:30;;;;;;;6.73;3.93;;;;;;;12.23;81.77;97599.27;124972;1096;64429;-82
2021/05/02 10:48:27;;;;;;;4.37;2.90;;;;;;;12.12;81.01;97602.13;124594;1101;64403;-82
2021/05/02 10:50:55;;;;;;;3.40;2.90;;;;;;;11.86;80.88;97608.95;124809;1096;64332;-82
2021/05/02 10:53:24;;;;;;;5.13;3.30;;;;;;;11.54;80.68;97616.44;124932;1096;64307;-80
2021/05/02 10:56:07;;;;;;;4.83;3.70;;;;;;;11.24;81.28;97628.94;124941;1101;64368;-83
2021/05/02 10:58:42;;;;;;;4.67;3.70;;;;;;;11.04;82.31;97637.93;124881;1097;64364;-83
2021/05/02 11:01:24;;;;;;;3.97;3.57;;;;;;;10.96;82.72;97635.95;124821;1101;64507;-83
2021/05/02 11:03:52;;;;;;;6.43;4.40;;;;;;;10.79;83.36;97653.44;124811;1097;64479;-83
2021/05/02 11:06:38;;;;;;;4.25;3.50;;;;;;;10.64;83.79;97661.00;124917;1095;64253;-82
2021/05/02 11:09:14;;;;;;;5.40;3.10;;;;;;;10.47;83.97;97675.78;124830;1096;64335;-84
2021/05/02 11:11:46;;;;;;;5.43;3.20;;;;;;;10.32;84.18;97677.12;125052;1101;64363;-84
2021/05/02 11:17:10;;;;;;;4.40;2.70;;;;;;;10.07;84.75;97705.84;124860;1097;64348;-83
2021/05/02 11:19:40;;;;;;;3.83;2.60;;;;;;;9.95;85.09;97698.89;124982;1096;64347;-82
2021/05/02 11:22:26;;;;;;;3.33;2.47;;;;;;;9.81;84.95;97723.17;124834;1101;64354;-83
2021/05/02 11:24:55;;;;;;;4.23;2.87;;;;;;;9.68;84.99;97726.02;124800;1101;65544;-86
2021/05/02 11:27:43;;;;;;;3.75;2.53;;;;;;;9.57;85.18;97747.36;124826;1096;64341;-82